createdAt,value
2018-10-01T00:00:10.030Z,8.00
2018-10-01T00:01:10.032Z,4.00
2018-10-01T00:02:31.044Z,4.00
2018-10-01T00:03:31.003Z,4.00
2018-10-01T00:04:10.008Z,8.00
2018-10-01T00:05:09.996Z,4.00
2018-10-01T00:06:09.998Z,4.00
2018-10-01T00:07:30.983Z,4.00
2018-10-01T00:08:31.945Z,4.00
2018-10-01T00:09:09.982Z,4.00
2018-10-01T00:10:09.946Z,4.00
2018-10-01T00:11:09.970Z,8.00
2018-10-01T00:12:30.970Z,4.00
2018-10-01T00:13:30.960Z,4.00
2018-10-01T00:14:09.941Z,4.00
2018-10-01T00:15:09.941Z,8.00
2018-10-01T00:16:09.928Z,8.00
2018-10-01T00:17:30.931Z,4.00
2018-10-01T00:18:30.925Z,4.00
2018-10-01T00:19:09.917Z,4.00
2018-10-01T00:20:09.910Z,4.00
2018-10-01T00:21:09.898Z,4.00
2018-10-01T00:22:30.885Z,8.00
2018-10-01T00:23:30.860Z,4.00
2018-10-01T00:24:09.866Z,4.00
2018-10-01T00:25:09.879Z,4.00
2018-10-01T00:26:09.868Z,4.00
2018-10-01T00:27:30.866Z,4.00
2018-10-01T00:28:30.854Z,4.00
2018-10-01T00:29:09.848Z,4.00
2018-10-01T00:30:09.846Z,8.00
2018-10-01T00:31:09.842Z,4.00
2018-10-01T00:32:30.837Z,8.00
2018-10-01T00:33:30.838Z,8.00
2018-10-01T00:34:09.819Z,4.00
2018-10-01T00:35:09.808Z,4.00
2018-10-01T00:36:09.805Z,4.00
2018-10-01T00:37:30.804Z,8.00
2018-10-01T00:38:30.839Z,4.00
2018-10-01T00:39:09.800Z,8.00
2018-10-01T00:40:09.774Z,4.00
2018-10-01T00:41:09.749Z,4.00
2018-10-01T00:42:30.743Z,4.00
2018-10-01T00:43:30.763Z,4.00
2018-10-01T00:44:09.783Z,8.00
2018-10-01T00:45:09.738Z,8.00
2018-10-01T00:46:09.746Z,4.00
2018-10-01T00:47:30.731Z,4.00
2018-10-01T00:48:30.732Z,8.00
2018-10-01T00:49:09.713Z,4.00
2018-10-01T00:50:09.718Z,8.00
2018-10-01T00:51:09.709Z,4.00
2018-10-01T00:52:30.707Z,4.00
2018-10-01T00:53:30.678Z,8.00
2018-10-01T00:54:09.678Z,4.00
2018-10-01T00:55:09.668Z,4.00
2018-10-01T00:56:09.682Z,4.00
2018-10-01T00:57:30.678Z,8.00
2018-10-01T00:58:30.664Z,4.00
2018-10-01T00:59:10.569Z,4.00
2018-10-01T01:00:09.635Z,4.00
2018-10-01T01:01:09.632Z,4.00
2018-10-01T01:02:30.607Z,4.00
2018-10-01T01:03:30.648Z,4.00
2018-10-01T01:04:09.619Z,8.00
2018-10-01T01:05:09.614Z,4.00
2018-10-01T01:06:09.611Z,8.00
2018-10-01T01:07:30.614Z,8.00
2018-10-01T01:08:30.597Z,4.00
2018-10-01T01:09:09.582Z,4.00
2018-10-01T01:10:09.577Z,8.00
2018-10-01T01:11:09.571Z,4.00
2018-10-01T01:12:30.574Z,8.00
2018-10-01T01:13:30.596Z,8.00
2018-10-01T01:14:09.564Z,8.00
2018-10-01T01:15:09.531Z,4.00
2018-10-01T01:16:09.543Z,4.00
2018-10-01T01:17:30.553Z,8.00
2018-10-01T01:18:30.537Z,8.00
2018-10-01T01:19:09.496Z,8.00
2018-10-01T01:20:09.501Z,4.00
2018-10-01T01:21:09.511Z,8.00
2018-10-01T01:22:30.512Z,8.00
2018-10-01T01:23:30.514Z,8.00
2018-10-01T01:24:09.483Z,8.00
2018-10-01T01:25:09.470Z,4.00
2018-10-01T01:26:09.476Z,4.00
2018-10-01T01:27:30.479Z,8.00
2018-10-01T01:28:30.470Z,4.00
2018-10-01T01:29:09.460Z,4.00
2018-10-01T01:30:09.436Z,8.00
2018-10-01T01:31:09.442Z,8.00
2018-10-01T01:32:30.448Z,8.00
2018-10-01T01:33:30.447Z,8.00
2018-10-01T01:34:09.424Z,8.00
2018-10-01T01:35:09.414Z,8.00
2018-10-01T01:36:09.410Z,4.00
2018-10-01T01:37:30.404Z,8.00
2018-10-01T01:38:30.406Z,4.00
2018-10-01T01:39:09.355Z,8.00
2018-10-01T01:40:09.432Z,8.00
2018-10-01T01:41:09.378Z,8.00
2018-10-01T01:42:30.372Z,4.00
2018-10-01T01:43:30.368Z,8.00
2018-10-01T01:44:09.354Z,4.00
2018-10-01T01:45:09.337Z,8.00
2018-10-01T01:46:09.338Z,4.00
2018-10-01T01:47:30.340Z,8.00
2018-10-01T01:48:30.325Z,8.00
2018-10-01T01:49:09.323Z,8.00
2018-10-01T01:50:09.294Z,4.00
2018-10-01T01:51:09.313Z,4.00
2018-10-01T01:52:30.302Z,8.00
2018-10-01T01:53:30.303Z,4.00
2018-10-01T01:54:09.289Z,8.00
2018-10-01T01:55:09.256Z,4.00
2018-10-01T01:56:09.270Z,4.00
2018-10-01T01:57:30.275Z,4.00
2018-10-01T01:58:30.268Z,4.00
2018-10-01T01:59:09.258Z,4.00
2018-10-01T02:00:09.343Z,8.00
2018-10-01T02:01:09.235Z,8.00
2018-10-01T02:02:30.228Z,8.00
2018-10-01T02:03:30.239Z,4.00
2018-10-01T02:04:09.226Z,4.00
2018-10-01T02:05:09.208Z,8.00
2018-10-01T02:06:09.211Z,8.00
2018-10-01T02:07:30.197Z,4.00
2018-10-01T02:08:30.201Z,8.00
2018-10-01T02:09:09.186Z,8.00
2018-10-01T02:10:09.180Z,4.00
2018-10-01T02:11:09.167Z,4.00
2018-10-01T02:12:30.168Z,4.00
2018-10-01T02:13:30.169Z,4.00
2018-10-01T02:14:09.153Z,4.00
2018-10-01T02:15:09.131Z,4.00
2018-10-01T02:16:09.132Z,8.00
2018-10-01T02:17:30.127Z,4.00
2018-10-01T02:18:30.139Z,8.00
2018-10-01T02:19:09.117Z,4.00
2018-10-01T02:20:09.106Z,8.00
2018-10-01T02:21:09.103Z,8.00
2018-10-01T02:22:30.106Z,4.00
2018-10-01T02:23:30.098Z,8.00
2018-10-01T02:24:09.081Z,4.00
2018-10-01T02:25:09.051Z,8.00
2018-10-01T02:26:09.066Z,4.00
2018-10-01T02:27:30.057Z,4.00
2018-10-01T02:28:30.061Z,4.00
2018-10-01T02:29:09.049Z,4.00
2018-10-01T02:30:09.046Z,4.00
2018-10-01T02:31:09.735Z,4.00
2018-10-01T02:32:30.033Z,4.00
2018-10-01T02:33:30.007Z,8.00
2018-10-01T02:34:09.021Z,4.00
2018-10-01T02:35:09.003Z,8.00
2018-10-01T02:36:09.002Z,8.00
2018-10-01T02:37:30.002Z,8.00
2018-10-01T02:38:29.998Z,4.00
2018-10-01T02:39:08.988Z,8.00
2018-10-01T02:40:08.977Z,8.00
2018-10-01T02:41:08.958Z,4.00
2018-10-01T02:42:29.973Z,8.00
2018-10-01T02:43:29.953Z,8.00
2018-10-01T02:44:08.954Z,8.00
2018-10-01T02:45:08.953Z,4.00
2018-10-01T02:46:08.932Z,4.00
2018-10-01T02:47:29.939Z,4.00
2018-10-01T02:48:29.903Z,8.00
2018-10-01T02:49:08.911Z,8.00
2018-10-01T02:50:08.909Z,4.00
2018-10-01T02:51:08.888Z,8.00
2018-10-01T02:52:29.915Z,4.00
2018-10-01T02:53:29.896Z,4.00
2018-10-01T02:54:08.872Z,8.00
2018-10-01T02:55:08.863Z,4.00
2018-10-01T02:56:08.865Z,4.00
2018-10-01T02:57:29.860Z,4.00
2018-10-01T02:58:29.861Z,4.00
2018-10-01T02:59:08.843Z,4.00
2018-10-01T03:00:08.835Z,4.00
2018-10-01T03:01:08.820Z,4.00
2018-10-01T03:02:29.832Z,4.00
2018-10-01T03:03:29.814Z,4.00
2018-10-01T03:04:08.778Z,4.00
2018-10-01T03:05:08.810Z,4.00
2018-10-01T03:06:08.790Z,4.00
2018-10-01T03:07:29.788Z,8.00
2018-10-01T03:08:29.785Z,8.00
2018-10-01T03:09:08.773Z,4.00
2018-10-01T03:10:08.771Z,8.00
2018-10-01T03:11:08.808Z,4.00
2018-10-01T03:12:30.263Z,4.00
2018-10-01T03:13:29.748Z,4.00
2018-10-01T03:14:08.743Z,4.00
2018-10-01T03:15:08.800Z,4.00
2018-10-01T03:16:08.732Z,4.00
2018-10-01T03:17:29.737Z,4.00
2018-10-01T03:18:36.558Z,4.00
2018-10-01T03:19:08.715Z,4.00
2018-10-01T03:20:08.753Z,8.00
2018-10-01T03:21:08.770Z,8.00
2018-10-01T03:22:29.687Z,8.00
2018-10-01T03:23:29.683Z,8.00
2018-10-01T03:24:08.671Z,8.00
2018-10-01T03:25:08.666Z,8.00
2018-10-01T03:26:08.652Z,8.00
2018-10-01T03:27:29.621Z,8.00
2018-10-01T03:28:29.656Z,8.00
2018-10-01T03:29:08.606Z,8.00
2018-10-01T03:30:08.619Z,8.00
2018-10-01T03:31:08.618Z,8.00
2018-10-01T03:32:29.617Z,8.00
2018-10-01T03:33:29.615Z,8.00
2018-10-01T03:34:08.592Z,8.00
2018-10-01T03:35:08.589Z,8.00
2018-10-01T03:36:08.582Z,8.00
2018-10-01T03:37:29.580Z,8.00
2018-10-01T03:38:29.584Z,8.00
2018-10-01T03:39:08.561Z,8.00
2018-10-01T03:40:08.572Z,8.00
2018-10-01T03:41:08.512Z,8.00
2018-10-01T03:42:29.517Z,8.00
2018-10-01T03:43:30.464Z,8.00
2018-10-01T03:44:08.532Z,8.00
2018-10-01T03:45:08.512Z,8.00
2018-10-01T03:46:08.481Z,8.00
2018-10-01T03:47:29.513Z,8.00
2018-10-01T03:48:29.507Z,8.00
2018-10-01T03:49:08.462Z,8.00
2018-10-01T03:50:08.476Z,8.00
2018-10-01T03:51:08.482Z,8.00
2018-10-01T03:52:29.494Z,8.00
2018-10-01T03:53:29.474Z,8.00
2018-10-01T03:54:08.461Z,8.00
2018-10-01T03:55:08.444Z,8.00
2018-10-01T03:56:08.442Z,8.00
2018-10-01T03:57:29.446Z,8.00
2018-10-01T03:58:29.433Z,8.00
2018-10-01T03:59:08.418Z,8.00
2018-10-01T04:00:08.405Z,8.00
2018-10-01T04:01:08.398Z,8.00
2018-10-01T04:02:29.396Z,8.00
2018-10-01T04:03:29.398Z,8.00
2018-10-01T04:04:08.388Z,8.00
2018-10-01T04:05:08.392Z,8.00
2018-10-01T04:06:08.368Z,8.00
2018-10-01T04:07:29.361Z,8.00
2018-10-01T04:08:29.355Z,8.00
2018-10-01T04:09:08.359Z,8.00
2018-10-01T04:10:08.350Z,8.00
2018-10-01T04:11:08.349Z,8.00
2018-10-01T04:12:29.326Z,8.00
2018-10-01T04:13:29.323Z,8.00
2018-10-01T04:14:08.308Z,8.00
2018-10-01T04:15:08.268Z,8.00
2018-10-01T04:16:08.291Z,8.00
2018-10-01T04:17:29.320Z,8.00
2018-10-01T04:18:29.285Z,8.00
2018-10-01T04:19:08.267Z,8.00
2018-10-01T04:20:08.234Z,8.00
2018-10-01T04:21:08.265Z,8.00
2018-10-01T04:22:29.258Z,8.00
2018-10-01T04:23:29.221Z,8.00
2018-10-01T04:24:08.241Z,8.00
2018-10-01T04:25:08.242Z,8.00
2018-10-01T04:26:08.205Z,8.00
2018-10-01T04:27:29.201Z,8.00
2018-10-01T04:28:29.217Z,8.00
2018-10-01T04:29:08.199Z,8.00
2018-10-01T04:30:08.197Z,8.00
2018-10-01T04:31:08.183Z,8.00
2018-10-01T04:32:29.166Z,8.00
2018-10-01T04:33:29.183Z,8.00
2018-10-01T04:34:09.150Z,8.00
2018-10-01T04:35:08.158Z,8.00
2018-10-01T04:36:08.164Z,8.00
2018-10-01T04:37:29.152Z,8.00
2018-10-01T04:38:29.138Z,8.00
2018-10-01T04:39:08.134Z,8.00
2018-10-01T04:40:08.147Z,12.00
2018-10-01T04:41:08.123Z,16.00
2018-10-01T04:42:29.121Z,20.00
2018-10-01T04:43:29.076Z,20.00
2018-10-01T04:44:08.108Z,16.00
2018-10-01T04:45:08.084Z,16.00
2018-10-01T04:46:08.084Z,16.00
2018-10-01T04:47:29.067Z,20.00
2018-10-01T04:48:29.036Z,20.00
2018-10-01T04:49:08.053Z,16.00
2018-10-01T04:50:08.052Z,20.00
2018-10-01T04:51:08.056Z,20.00
2018-10-01T04:52:29.043Z,20.00
2018-10-01T04:53:29.062Z,20.00
2018-10-01T04:54:08.019Z,20.00
2018-10-01T04:55:08.025Z,24.00
2018-10-01T04:56:08.000Z,20.00
2018-10-01T04:57:29.012Z,20.00
2018-10-01T04:58:29.148Z,20.00
2018-10-01T04:59:07.994Z,20.00
2018-10-01T05:00:07.983Z,24.00
2018-10-01T05:01:07.976Z,28.00
2018-10-01T05:02:28.984Z,28.00
2018-10-01T05:03:28.959Z,28.00
2018-10-01T05:04:07.989Z,32.00
2018-10-01T05:05:07.945Z,36.00
2018-10-01T05:06:07.962Z,40.00
2018-10-01T05:07:28.933Z,44.00
2018-10-01T05:08:28.944Z,44.00
2018-10-01T05:09:07.932Z,48.00
2018-10-01T05:10:07.890Z,52.00
2018-10-01T05:11:07.900Z,56.00
2018-10-01T05:12:28.915Z,60.00
2018-10-01T05:13:28.904Z,68.00
2018-10-01T05:14:07.881Z,76.00
2018-10-01T05:15:07.873Z,84.00
2018-10-01T05:16:07.872Z,88.00
2018-10-01T05:17:28.873Z,92.00
2018-10-01T05:18:28.863Z,100.00
2018-10-01T05:19:07.849Z,104.00
2018-10-01T05:20:07.852Z,112.00
2018-10-01T05:21:07.830Z,120.00
2018-10-01T05:22:28.844Z,124.00
2018-10-01T05:23:28.824Z,128.00
2018-10-01T05:24:07.809Z,132.00
2018-10-01T05:25:07.810Z,136.00
2018-10-01T05:26:07.800Z,144.00
2018-10-01T05:27:28.800Z,152.00
2018-10-01T05:28:28.804Z,156.00
2018-10-01T05:29:07.773Z,164.00
2018-10-01T05:30:07.759Z,168.00
2018-10-01T05:31:07.774Z,176.00
2018-10-01T05:32:28.756Z,176.00
2018-10-01T05:33:28.730Z,184.00
2018-10-01T05:34:07.744Z,188.00
2018-10-01T05:35:08.031Z,196.00
2018-10-01T05:36:07.725Z,204.00
2018-10-01T05:37:28.725Z,212.00
2018-10-01T05:38:28.719Z,220.00
2018-10-01T05:39:07.710Z,224.00
2018-10-01T05:40:07.698Z,228.00
2018-10-01T05:41:07.681Z,232.00
2018-10-01T05:42:28.666Z,236.00
2018-10-01T05:43:28.684Z,240.00
2018-10-01T05:44:07.644Z,248.00
2018-10-01T05:45:07.666Z,252.00
2018-10-01T05:46:07.623Z,260.00
2018-10-01T05:47:28.619Z,264.00
2018-10-01T05:48:28.641Z,268.00
2018-10-01T05:49:07.663Z,292.00
2018-10-01T05:50:07.617Z,276.00
2018-10-01T05:51:07.621Z,284.00
2018-10-01T05:52:28.664Z,296.00
2018-10-01T05:53:28.594Z,304.00
2018-10-01T05:54:07.614Z,312.00
2018-10-01T05:55:07.591Z,324.00
2018-10-01T05:56:07.630Z,332.00
2018-10-01T05:57:28.586Z,344.00
2018-10-01T05:58:34.783Z,356.00
2018-10-01T05:59:07.722Z,368.00
2018-10-01T06:00:07.823Z,384.00
2018-10-01T06:01:13.235Z,404.00
2018-10-01T06:02:34.180Z,420.00
2018-10-01T06:03:28.532Z,444.00
2018-10-01T06:04:07.528Z,460.00
2018-10-01T06:05:07.533Z,476.00
2018-10-01T06:06:08.478Z,492.00
2018-10-01T06:07:28.508Z,500.00
2018-10-01T06:08:28.570Z,512.00
2018-10-01T06:09:07.501Z,516.00
2018-10-01T06:10:07.493Z,520.00
2018-10-01T06:11:07.477Z,528.00
2018-10-01T06:12:28.488Z,532.00
2018-10-01T06:13:28.471Z,540.00
2018-10-01T06:14:07.462Z,564.00
2018-10-01T06:15:07.451Z,584.00
2018-10-01T06:16:07.454Z,588.00
2018-10-01T06:17:28.469Z,588.00
2018-10-01T06:18:28.432Z,588.00
2018-10-01T06:19:07.429Z,596.00
2018-10-01T06:20:07.424Z,600.00
2018-10-01T06:21:07.425Z,604.00
2018-10-01T06:22:28.409Z,608.00
2018-10-01T06:23:28.397Z,616.00
2018-10-01T06:24:07.387Z,620.00
2018-10-01T06:25:07.391Z,636.00
2018-10-01T06:26:07.384Z,656.00
2018-10-01T06:27:28.349Z,676.00
2018-10-01T06:28:28.393Z,688.00
2018-10-01T06:29:07.363Z,708.00
2018-10-01T06:30:07.328Z,732.00
2018-10-01T06:31:07.346Z,760.00
2018-10-01T06:32:28.361Z,784.00
2018-10-01T06:33:28.335Z,796.00
2018-10-01T06:34:07.329Z,788.00
2018-10-01T06:35:07.305Z,784.00
2018-10-01T06:36:07.323Z,792.00
2018-10-01T06:37:28.332Z,784.00
2018-10-01T06:38:28.316Z,788.00
2018-10-01T06:39:07.289Z,776.00
2018-10-01T06:40:07.279Z,768.00
2018-10-01T06:41:07.338Z,760.00
2018-10-01T06:42:28.288Z,760.00
2018-10-01T06:43:28.403Z,760.00
2018-10-01T06:44:07.259Z,772.00
2018-10-01T06:45:07.249Z,792.00
2018-10-01T06:46:07.243Z,820.00
2018-10-01T06:47:28.994Z,836.00
2018-10-01T06:48:28.261Z,860.00
2018-10-01T06:49:07.211Z,888.00
2018-10-01T06:50:07.181Z,904.00
2018-10-01T06:51:07.232Z,920.00
2018-10-01T06:52:28.238Z,936.00
2018-10-01T06:53:28.191Z,944.00
2018-10-01T06:54:07.183Z,948.00
2018-10-01T06:55:07.204Z,952.00
2018-10-01T06:56:07.177Z,976.00
2018-10-01T06:57:28.155Z,1008.00
2018-10-01T06:58:28.157Z,1040.00
2018-10-01T06:59:07.139Z,1056.00
2018-10-01T07:00:07.110Z,1072.00
2018-10-01T07:01:07.149Z,1092.00
2018-10-01T07:02:28.143Z,1112.00
2018-10-01T07:03:28.122Z,1148.00
2018-10-01T07:04:07.123Z,1196.00
2018-10-01T07:05:07.111Z,1240.00
2018-10-01T07:06:07.081Z,1288.00
2018-10-01T07:07:28.110Z,1328.00
2018-10-01T07:08:28.098Z,1392.00
2018-10-01T07:09:07.093Z,1452.00
2018-10-01T07:10:08.257Z,1496.00
2018-10-01T07:11:07.116Z,1524.00
2018-10-01T07:12:28.088Z,1556.00
2018-10-01T07:13:28.065Z,1580.00
2018-10-01T07:14:07.117Z,1612.00
2018-10-01T07:15:07.050Z,1652.00
2018-10-01T07:16:07.033Z,1684.00
2018-10-01T07:17:28.139Z,1704.00
2018-10-01T07:18:29.091Z,1740.00
2018-10-01T07:19:07.013Z,1768.00
2018-10-01T07:20:06.975Z,1756.00
2018-10-01T07:21:07.001Z,1740.00
2018-10-01T07:22:28.055Z,1732.00
2018-10-01T07:23:28.202Z,1724.00
2018-10-01T07:24:06.984Z,1708.00
2018-10-01T07:25:06.978Z,1712.00
2018-10-01T07:26:06.947Z,1724.00
2018-10-01T07:27:28.139Z,1748.00
2018-10-01T07:28:27.953Z,1784.00
2018-10-01T07:29:06.957Z,1856.00
2018-10-01T07:30:06.942Z,1872.00
2018-10-01T07:31:06.920Z,1920.00
2018-10-01T07:32:27.958Z,1972.00
2018-10-01T07:33:27.919Z,2008.00
2018-10-01T07:34:06.936Z,2004.00
2018-10-01T07:35:06.902Z,1952.00
2018-10-01T07:36:06.901Z,1952.00
2018-10-01T07:37:27.951Z,1992.00
2018-10-01T07:38:28.105Z,2036.00
2018-10-01T07:39:07.035Z,2060.00
2018-10-01T07:40:06.916Z,2076.00
2018-10-01T07:41:06.895Z,2108.00
2018-10-01T07:42:29.550Z,2128.00
2018-10-01T07:43:27.884Z,2148.00
2018-10-01T07:44:07.021Z,2156.00
2018-10-01T07:45:06.911Z,2172.00
2018-10-01T07:46:06.911Z,2184.00
2018-10-01T07:47:27.977Z,2196.00
2018-10-01T07:48:27.975Z,2200.00
2018-10-01T07:49:06.869Z,2216.00
2018-10-01T07:50:06.843Z,2256.00
2018-10-01T07:51:06.924Z,2288.00
2018-10-01T07:52:27.952Z,2308.00
2018-10-01T07:53:27.847Z,2324.00
2018-10-01T07:54:06.829Z,2336.00
2018-10-01T07:55:06.892Z,2352.00
2018-10-01T07:56:06.811Z,2372.00
2018-10-01T07:57:27.880Z,2400.00
2018-10-01T07:58:27.790Z,2416.00
2018-10-01T07:59:06.767Z,2396.00
2018-10-01T08:00:07.093Z,2352.00
2018-10-01T08:01:06.766Z,2324.00
2018-10-01T08:02:27.795Z,2280.00
2018-10-01T08:03:27.751Z,2236.00
2018-10-01T08:04:06.769Z,2196.00
2018-10-01T08:05:06.735Z,2168.00
2018-10-01T08:06:06.754Z,2164.00
2018-10-01T08:07:27.743Z,2184.00
2018-10-01T08:08:27.679Z,2204.00
2018-10-01T08:09:07.695Z,2232.00
2018-10-01T08:10:06.735Z,2264.00
2018-10-01T08:11:06.699Z,2312.00
2018-10-01T08:12:27.700Z,2364.00
2018-10-01T08:13:27.693Z,2408.00
2018-10-01T08:14:06.763Z,2464.00
2018-10-01T08:15:06.731Z,2512.00
2018-10-01T08:16:06.700Z,2548.00
2018-10-01T08:17:27.674Z,2580.00
2018-10-01T08:18:27.714Z,2592.00
2018-10-01T08:19:06.656Z,2588.00
2018-10-01T08:20:06.725Z,2584.00
2018-10-01T08:21:06.647Z,2604.00
2018-10-01T08:22:27.675Z,2632.00
2018-10-01T08:23:27.714Z,2668.00
2018-10-01T08:24:06.659Z,2680.00
2018-10-01T08:25:06.622Z,2732.00
2018-10-01T08:26:06.707Z,2780.00
2018-10-01T08:27:27.624Z,2836.00
2018-10-01T08:28:27.656Z,2888.00
2018-10-01T08:29:06.655Z,2940.00
2018-10-01T08:30:06.604Z,2936.00
2018-10-01T08:31:06.595Z,2900.00
2018-10-01T08:32:27.670Z,2860.00
2018-10-01T08:33:27.593Z,2816.00
2018-10-01T08:34:06.584Z,2780.00
2018-10-01T08:35:06.632Z,2736.00
2018-10-01T08:36:06.581Z,2700.00
2018-10-01T08:37:27.573Z,2680.00
2018-10-01T08:38:27.667Z,2636.00
2018-10-01T08:39:06.556Z,2572.00
2018-10-01T08:40:06.522Z,2536.00
2018-10-01T08:41:06.602Z,2524.00
2018-10-01T08:42:27.562Z,2528.00
2018-10-01T08:43:27.545Z,2532.00
2018-10-01T08:44:06.579Z,2528.00
2018-10-01T08:45:06.523Z,2516.00
2018-10-01T08:46:06.535Z,2532.00
2018-10-01T08:47:27.569Z,2548.00
2018-10-01T08:48:27.563Z,2568.00
2018-10-01T08:49:06.512Z,2580.00
2018-10-01T08:50:06.682Z,2600.00
2018-10-01T08:51:06.506Z,2624.00
2018-10-01T08:52:27.485Z,2632.00
2018-10-01T08:53:27.550Z,2656.00
2018-10-01T08:54:06.484Z,2636.00
2018-10-01T08:55:06.481Z,2616.00
2018-10-01T08:56:06.540Z,2612.00
2018-10-01T08:57:27.473Z,2636.00
2018-10-01T08:58:27.519Z,2664.00
2018-10-01T08:59:06.470Z,2684.00
2018-10-01T09:00:06.461Z,2712.00
2018-10-01T09:01:06.483Z,2748.00
2018-10-01T09:02:27.535Z,2812.00
2018-10-01T09:03:27.466Z,2988.00
2018-10-01T09:04:06.438Z,2876.00
2018-10-01T09:05:06.455Z,2888.00
2018-10-01T09:06:06.437Z,2940.00
2018-10-01T09:07:27.409Z,2988.00
2018-10-01T09:08:27.558Z,3012.00
2018-10-01T09:09:06.455Z,3032.00
2018-10-01T09:10:06.800Z,3064.00
2018-10-01T09:11:07.237Z,3080.00
2018-10-01T09:12:27.426Z,3076.00
2018-10-01T09:13:27.792Z,3076.00
2018-10-01T09:14:06.636Z,3048.00
2018-10-01T09:15:06.402Z,3092.00
2018-10-01T09:16:06.411Z,3080.00
2018-10-01T09:17:27.488Z,3052.00
2018-10-01T09:18:27.943Z,3028.00
2018-10-01T09:19:08.216Z,3052.00
2018-10-01T09:20:06.402Z,3088.00
2018-10-01T09:21:16.197Z,3100.00
2018-10-01T09:22:27.596Z,3072.00
2018-10-01T09:23:28.924Z,3084.00
2018-10-01T09:24:09.280Z,3112.00
2018-10-01T09:25:09.032Z,3140.00
2018-10-01T09:26:07.603Z,3148.00
2018-10-01T09:27:35.557Z,3148.00
2018-10-01T09:28:27.712Z,3132.00
2018-10-01T09:29:07.979Z,3128.00
2018-10-01T09:30:06.372Z,3136.00
2018-10-01T09:31:06.417Z,3124.00
2018-10-01T09:32:27.441Z,3076.00
2018-10-01T09:33:27.451Z,2888.00
2018-10-01T09:34:06.442Z,2596.00
2018-10-01T09:35:08.956Z,2480.00
2018-10-01T09:36:06.529Z,2512.00
2018-10-01T09:37:27.339Z,2472.00
2018-10-01T09:38:27.514Z,2440.00
2018-10-01T09:39:06.343Z,2428.00
2018-10-01T09:40:06.399Z,2348.00
2018-10-01T09:41:09.680Z,2192.00
2018-10-01T09:42:28.266Z,2132.00
2018-10-01T09:43:32.099Z,2204.00
2018-10-01T09:44:06.705Z,2348.00
2018-10-01T09:45:06.271Z,2576.00
2018-10-01T09:46:06.386Z,2804.00
2018-10-01T09:47:28.692Z,2932.00
2018-10-01T09:48:27.300Z,2888.00
2018-10-01T09:49:06.326Z,2744.00
2018-10-01T09:50:06.540Z,2616.00
2018-10-01T09:51:07.164Z,2536.00
2018-10-01T09:52:27.361Z,2448.00
2018-10-01T09:53:27.210Z,2380.00
2018-10-01T09:54:06.192Z,2320.00
2018-10-01T09:55:06.800Z,2288.00
2018-10-01T09:56:06.422Z,2288.00
2018-10-01T09:57:27.263Z,2360.00
2018-10-01T09:58:27.259Z,2400.00
2018-10-01T09:59:06.274Z,2392.00
2018-10-01T10:00:06.239Z,2344.00
2018-10-01T10:01:06.204Z,2368.00
2018-10-01T10:02:27.212Z,2508.00
2018-10-01T10:03:27.186Z,2660.00
2018-10-01T10:04:06.235Z,2736.00
2018-10-01T10:05:06.231Z,2696.00
2018-10-01T10:06:06.171Z,2600.00
2018-10-01T10:07:27.176Z,2472.00
2018-10-01T10:08:27.170Z,2816.00
2018-10-01T10:09:06.159Z,3328.00
2018-10-01T10:10:06.175Z,3472.00
2018-10-01T10:11:06.140Z,3136.00
2018-10-01T10:12:27.179Z,2776.00
2018-10-01T10:13:27.158Z,2704.00
2018-10-01T10:14:06.210Z,2404.00
2018-10-01T10:15:06.128Z,2640.00
2018-10-01T10:16:06.140Z,2992.00
2018-10-01T10:17:27.133Z,3156.00
2018-10-01T10:18:27.133Z,3472.00
2018-10-01T10:19:06.135Z,3468.00
2018-10-01T10:20:06.176Z,3512.00
2018-10-01T10:21:06.145Z,3524.00
2018-10-01T10:22:27.813Z,3512.00
2018-10-01T10:23:27.147Z,3536.00
2018-10-01T10:24:06.106Z,3548.00
2018-10-01T10:25:06.094Z,3440.00
2018-10-01T10:26:06.125Z,3596.00
2018-10-01T10:27:27.113Z,3760.00
2018-10-01T10:28:27.205Z,3360.00
2018-10-01T10:29:06.084Z,2812.00
2018-10-01T10:30:06.085Z,2992.00
2018-10-01T10:31:06.103Z,3168.00
2018-10-01T10:32:27.162Z,3556.00
2018-10-01T10:33:27.348Z,3428.00
2018-10-01T10:34:06.094Z,3292.00
2018-10-01T10:35:06.094Z,3640.00
2018-10-01T10:36:06.072Z,3608.00
2018-10-01T10:37:27.249Z,3540.00
2018-10-01T10:38:27.144Z,3164.00
2018-10-01T10:39:06.107Z,2812.00
2018-10-01T10:40:06.728Z,2832.00
2018-10-01T10:41:06.265Z,3056.00
2018-10-01T10:42:27.151Z,3940.00
2018-10-01T10:43:29.127Z,4208.00
2018-10-01T10:44:06.648Z,4192.00
2018-10-01T10:45:06.061Z,4156.00
2018-10-01T10:46:06.057Z,3936.00
2018-10-01T10:47:27.060Z,4140.00
2018-10-01T10:48:27.066Z,4296.00
2018-10-01T10:49:06.051Z,4532.00
2018-10-01T10:50:06.097Z,4772.00
2018-10-01T10:51:06.058Z,4820.00
2018-10-01T10:52:27.739Z,4900.00
2018-10-01T10:53:27.976Z,4872.00
2018-10-01T10:54:06.048Z,4872.00
2018-10-01T10:55:06.044Z,4576.00
2018-10-01T10:56:06.076Z,4168.00
2018-10-01T10:57:27.077Z,3884.00
2018-10-01T10:58:27.116Z,3568.00
2018-10-01T10:59:06.050Z,3480.00
2018-10-01T11:00:06.035Z,3380.00
2018-10-01T11:01:06.153Z,3188.00
2018-10-01T11:02:27.307Z,3060.00
2018-10-01T11:03:27.014Z,3132.00
2018-10-01T11:04:06.081Z,3260.00
2018-10-01T11:05:06.307Z,3348.00
2018-10-01T11:06:07.244Z,3340.00
2018-10-01T11:07:27.408Z,3212.00
2018-10-01T11:08:27.725Z,3036.00
2018-10-01T11:09:06.941Z,2788.00
2018-10-01T11:10:06.360Z,2468.00
2018-10-01T11:11:06.419Z,2196.00
2018-10-01T11:12:27.757Z,2240.00
2018-10-01T11:13:30.079Z,2100.00
2018-10-01T11:14:06.236Z,1668.00
2018-10-01T11:15:06.134Z,1764.00
2018-10-01T11:16:06.003Z,1812.00
2018-10-01T11:17:28.724Z,1460.00
2018-10-01T11:18:27.050Z,1476.00
2018-10-01T11:19:06.123Z,1660.00
2018-10-01T11:20:06.047Z,1632.00
2018-10-01T11:21:08.263Z,1760.00
2018-10-01T11:22:29.186Z,1944.00
2018-10-01T11:23:26.984Z,2124.00
2018-10-01T11:24:05.981Z,2272.00
2018-10-01T11:25:05.982Z,2428.00
2018-10-01T11:26:05.995Z,2524.00
2018-10-01T11:27:27.004Z,2652.00
2018-10-01T11:28:28.410Z,2764.00
2018-10-01T11:29:06.072Z,2836.00
2018-10-01T11:30:05.959Z,2852.00
2018-10-01T11:31:06.295Z,2752.00
2018-10-01T11:32:27.036Z,2568.00
2018-10-01T11:33:27.000Z,2420.00
2018-10-01T11:34:05.988Z,2408.00
2018-10-01T11:35:06.124Z,2484.00
2018-10-01T11:36:05.944Z,2528.00
2018-10-01T11:37:26.979Z,2732.00
2018-10-01T11:38:28.534Z,2956.00
2018-10-01T11:39:05.991Z,3208.00
2018-10-01T11:40:06.099Z,3508.00
2018-10-01T11:41:05.937Z,3500.00
2018-10-01T11:42:26.930Z,3260.00
2018-10-01T11:43:29.148Z,3136.00
2018-10-01T11:44:06.884Z,3220.00
2018-10-01T11:45:06.145Z,3392.00
2018-10-01T11:46:06.695Z,3516.00
2018-10-01T11:47:26.947Z,3556.00
2018-10-01T11:48:26.974Z,3504.00
2018-10-01T11:49:06.023Z,3500.00
2018-10-01T11:50:08.025Z,3524.00
2018-10-01T11:51:06.046Z,3364.00
2018-10-01T11:52:26.939Z,3276.00
2018-10-01T11:53:26.951Z,3232.00
2018-10-01T11:54:05.967Z,3148.00
2018-10-01T11:55:05.904Z,3008.00
2018-10-01T11:56:05.915Z,2924.00
2018-10-01T11:57:26.956Z,2820.00
2018-10-01T11:58:26.937Z,2708.00
2018-10-01T11:59:05.887Z,2684.00
2018-10-01T12:00:05.900Z,2536.00
2018-10-01T12:01:05.915Z,2428.00
2018-10-01T12:02:26.917Z,2264.00
2018-10-01T12:03:26.967Z,2092.00
2018-10-01T12:04:05.933Z,1996.00
2018-10-01T12:05:05.894Z,1976.00
2018-10-01T12:06:05.908Z,1936.00
2018-10-01T12:07:26.884Z,1832.00
2018-10-01T12:08:26.907Z,1748.00
2018-10-01T12:09:05.915Z,1712.00
2018-10-01T12:10:05.942Z,1664.00
2018-10-01T12:11:05.876Z,1648.00
2018-10-01T12:12:26.887Z,1640.00
2018-10-01T12:13:28.179Z,1644.00
2018-10-01T12:14:05.870Z,1648.00
2018-10-01T12:15:06.870Z,1668.00
2018-10-01T12:16:06.058Z,1696.00
2018-10-01T12:17:26.872Z,1752.00
2018-10-01T12:18:28.547Z,1836.00
2018-10-01T12:19:05.820Z,1988.00
2018-10-01T12:20:07.901Z,2236.00
2018-10-01T12:21:05.901Z,2528.00
2018-10-01T12:22:26.889Z,2832.00
2018-10-01T12:23:27.002Z,3212.00
2018-10-01T12:24:05.897Z,3608.00
2018-10-01T12:25:05.868Z,3740.00
2018-10-01T12:26:05.856Z,3540.00
2018-10-01T12:27:26.845Z,3220.00
2018-10-01T12:28:26.849Z,3024.00
2018-10-01T12:29:05.892Z,2996.00
2018-10-01T12:30:05.841Z,3028.00
2018-10-01T12:31:05.835Z,3040.00
2018-10-01T12:32:26.852Z,3080.00
2018-10-01T12:33:26.862Z,3140.00
2018-10-01T12:34:05.879Z,3184.00
2018-10-01T12:35:05.889Z,3216.00
2018-10-01T12:36:05.810Z,3304.00